KDAYKANQ

Guest
Details From KDAY - James M Cox Dayton Intl
To KANQ - Tri State Steuben Co
Flight Number -
Tags Generated
Created
Modified
Stats Distance 112 nm / 207 km
Max Altitude 0 ft / 0 m
Waypoints 2
Social Downloads 0
Likes 0
Share VATSIM

Download

Looking for another format? Having issues loading an existing format? Contact us
Advertisement - Login to hide

Notes

Generated

Route

KDAY KANQ

ID Type Via Altitude Latitude Longitude Leg Dist Tot Dist Heading (true) Name
O KDAY APT - 0 ft / 0 m 39.89100˚ -84.22240˚ - 0 nm - -
O KANQ APT - 0 ft / 0 m 41.63546˚ -85.08955˚ 111 nm 111 nm 340° / 339° -

Altitude Profile

Advertisement - Login to hide

KDAY

Details ICAO KDAY (DAY)
Name JAMES M COX DAYTON INTL
Region United States
Timezone America/New_York (UTC-4.0)
Stats Elevation 1,009 ft / 308 m (AMSL)
Location 39.901913° -84.217945°
Runways 3
Magnetic Variation 6.233° W

METAR

KDAY 221156Z 21007KT 6SM BR BKN007 OVC060 19/19 A3006 RMK AO2 SLP173 70074 T01940194 10194 20183 53010

Decode

TAF

TAF KDAY 221135Z 2212/2312 23008KT P6SM BKN005 TEMPO 2212/2215 5SM BR SCT005 BKN012 FM221500 24009KT P6SM SCT012 BKN035 FM221700 24010KT P6SM VCTS BKN035CB FM222300 32010KT P6SM BKN100 FM231000 35006KT 5SM BR BKN012

Decode

Departure Runways

ID Width Length Bearing (true) Bearing (mag) Surface Threshold Offset Overrun Length
06L 151 ft / 46 m 10,890 ft / 3,319 m 55.23° 61.46° Asphalt 0 ft / 0 m 0 ft / 0 m
06R 151 ft / 46 m 6,994 ft / 2,132 m 55.25° 61.48° Asphalt 0 ft / 0 m 0 ft / 0 m
18 151 ft / 46 m 8,514 ft / 2,595 m 178.53° 184.76° Asphalt 0 ft / 0 m 0 ft / 0 m
24L 151 ft / 46 m 6,994 ft / 2,132 m 235.27° 241.50° Asphalt 0 ft / 0 m 0 ft / 0 m
24R 151 ft / 46 m 10,890 ft / 3,319 m 235.25° 241.48° Asphalt 0 ft / 0 m 0 ft / 0 m
36 151 ft / 46 m 8,514 ft / 2,595 m 358.53° 4.76° Asphalt 0 ft / 0 m 0 ft / 0 m

KANQ

Details ICAO KANQ (ANQ)
Name TRI STATE STEUBEN CO
Region United States
Timezone America/Indiana/Indianapolis (UTC-4.0)
Stats Elevation 995 ft / 303 m (AMSL)
Location 41.639702° -85.083478°
Runways 1
Magnetic Variation 5.895° W

METAR

KANQ 221235Z AUTO 24006KT 1SM BR OVC003 17/16 A3000 RMK AO2 TSNO

Decode

TAF

Not found

Destination Runways

ID Width Length Bearing (true) Bearing (mag) Surface Threshold Offset Overrun Length
05 75 ft / 23 m 4,535 ft / 1,382 m 46.91° 52.80° Asphalt 540 ft / 165 m 800 ft / 244 m
23 75 ft / 23 m 4,535 ft / 1,382 m 226.92° 232.81° Asphalt 0 ft / 0 m 0 ft / 0 m